Time;durP1;ratioP1;P1;durP2;ratioP2;P2;SDS_P1;SDS_P2;PMS_P1;PMS_P2;Temp;Humidity;BMP_temperature;BMP_pressure;BME280_temperature;BME280_humidity;BME280_pressure;Samples;Min_cycle;Max_cycle;Signal;HPM_P1;HPM_P2
2023/10/01 00:01:43;;;;;;;10.27;4.25;;;14.50;99.90;;;;;;5082355;28;20043;-70
2023/10/01 00:04:09;;;;;;;5.32;3.38;;;14.30;99.90;;;;;;5080982;28;20070;-71
2023/10/01 00:06:36;;;;;;;4.95;3.25;;;14.20;99.90;;;;;;5080169;27;20106;-72
2023/10/01 00:09:05;;;;;;;5.00;2.95;;;14.20;99.90;;;;;;5075378;28;20067;-67
2023/10/01 00:11:32;;;;;;;9.73;3.85;;;14.10;99.90;;;;;;5083443;28;20055;-67
2023/10/01 00:13:59;;;;;;;4.93;3.35;;;14.10;99.90;;;;;;5084618;28;20032;-68
2023/10/01 00:16:25;;;;;;;5.65;4.60;;;14.00;99.90;;;;;;5078629;28;20047;-68
2023/10/01 00:18:51;;;;;;;6.40;3.97;;;14.00;99.90;;;;;;5086644;28;20043;-67
2023/10/01 00:21:17;;;;;;;4.53;3.15;;;14.00;99.90;;;;;;5088450;28;20054;-67
2023/10/01 00:23:43;;;;;;;4.82;3.72;;;14.00;99.90;;;;;;5090206;28;20050;-67
2023/10/01 00:26:10;;;;;;;5.57;3.67;;;13.90;99.90;;;;;;5073208;28;20036;-68
2023/10/01 00:28:35;;;;;;;4.05;2.95;;;13.90;99.90;;;;;;5089426;28;20040;-68
2023/10/01 00:31:01;;;;;;;5.10;4.03;;;13.90;99.90;;;;;;5086867;28;20314;-67
2023/10/01 00:33:27;;;;;;;4.10;3.50;;;13.90;99.90;;;;;;5082104;28;20039;-67
2023/10/01 00:35:55;;;;;;;6.43;3.83;;;13.80;99.90;;;;;;5080959;28;20066;-68
2023/10/01 00:38:20;;;;;;;3.38;3.08;;;13.70;99.90;;;;;;5089714;28;20032;-68
2023/10/01 00:40:49;;;;;;;20.52;16.10;;;13.60;99.90;;;;;;5081946;28;20441;-67
2023/10/01 00:43:15;;;;;;;15.18;10.35;;;13.60;99.90;;;;;;5090645;28;20047;-68
2023/10/01 00:45:41;;;;;;;10.20;8.02;;;13.60;99.90;;;;;;5087238;28;20039;-68
2023/10/01 00:48:14;;;;;;;18.83;13.10;;;13.50;99.90;;;;;;5084915;28;20048;-68
2023/10/01 00:50:41;;;;;;;5.90;4.88;;;13.40;99.90;;;;;;5087457;28;20043;-68
2023/10/01 00:53:08;;;;;;;5.40;4.57;;;13.40;99.90;;;;;;5089130;28;20036;-68
2023/10/01 00:55:34;;;;;;;9.05;6.22;;;13.30;99.90;;;;;;5084927;28;20054;-68
2023/10/01 00:58:00;;;;;;;6.95;5.70;;;13.40;99.90;;;;;;5088996;27;20500;-68
2023/10/01 01:00:26;;;;;;;7.50;5.60;;;13.40;99.90;;;;;;5095840;27;20085;-68
2023/10/01 01:03:00;;;;;;;6.53;4.78;;;13.30;99.90;;;;;;5092379;27;20047;-68
2023/10/01 01:05:36;;;;;;;10.13;6.97;;;13.20;99.90;;;;;;5089710;28;20059;-68
2023/10/01 01:08:21;;;;;;;5.43;3.28;;;13.20;99.90;;;;;;5089795;28;20166;-67
2023/10/01 01:10:49;;;;;;;9.48;3.88;;;13.10;99.90;;;;;;5094367;28;20504;-68
2023/10/01 01:13:16;;;;;;;4.53;3.38;;;13.10;99.90;;;;;;5092917;28;20039;-68
2023/10/01 01:15:45;;;;;;;3.95;2.65;;;13.00;99.90;;;;;;5088371;28;20576;-68
2023/10/01 01:18:13;;;;;;;4.07;3.05;;;13.00;99.90;;;;;;5071558;28;20039;-67
2023/10/01 01:20:45;;;;;;;5.75;3.80;;;13.00;99.90;;;;;;5089832;28;20020;-67
2023/10/01 01:23:18;;;;;;;4.22;3.17;;;13.00;99.90;;;;;;5092341;28;20060;-68
2023/10/01 01:25:44;;;;;;;6.97;3.67;;;12.80;99.90;;;;;;5088955;28;20051;-68
2023/10/01 01:28:12;;;;;;;4.40;3.30;;;12.60;99.90;;;;;;5093304;28;20055;-67
2023/10/01 01:30:42;;;;;;;4.13;2.38;;;12.50;99.90;;;;;;5092576;28;20396;-67
2023/10/01 01:33:13;;;;;;;3.47;2.80;;;12.50;99.90;;;;;;5085609;28;20268;-67
2023/10/01 01:35:43;;;;;;;4.33;2.63;;;12.60;99.90;;;;;;5091598;28;20039;-67
2023/10/01 01:38:09;;;;;;;5.53;2.58;;;12.60;99.90;;;;;;5090866;28;20058;-68
2023/10/01 01:40:40;;;;;;;2.80;2.35;;;12.70;99.90;;;;;;5095028;27;20040;-71
2023/10/01 01:43:15;;;;;;;3.05;2.50;;;12.60;99.90;;;;;;5089747;28;20067;-70
2023/10/01 01:45:44;;;;;;;4.80;2.80;;;12.60;99.90;;;;;;5085102;28;20038;-71
2023/10/01 01:50:55;;;;;;;3.63;3.00;;;12.20;99.90;;;;;;5089337;28;20233;-70
2023/10/01 01:53:21;;;;;;;2.78;2.50;;;12.20;99.90;;;;;;5090366;28;20031;-71
2023/10/01 01:55:50;;;;;;;3.42;2.78;;;12.10;99.90;;;;;;5085950;28;20051;-70
2023/10/01 01:58:23;;;;;;;3.25;2.92;;;12.10;99.90;;;;;;5087338;28;20043;-67
2023/10/01 02:01:08;;;;;;;2.33;2.08;;;12.20;99.90;;;;;;5092873;28;20138;-67
2023/10/01 02:03:37;;;;;;;4.30;2.20;;;12.20;99.90;;;;;;5089904;28;20059;-67
2023/10/01 02:06:06;;;;;;;2.88;2.50;;;12.10;99.90;;;;;;5083521;27;20047;-68
2023/10/01 02:08:49;;;;;;;4.13;2.85;;;11.90;99.90;;;;;;5093033;28;20039;-67
2023/10/01 02:11:18;;;;;;;3.17;2.70;;;12.00;99.90;;;;;;5089766;28;20037;-68
2023/10/01 02:13:46;;;;;;;2.72;2.10;;;11.90;99.90;;;;;;5094864;28;20024;-67
2023/10/01 02:16:48;;;;;;;2.72;2.20;;;11.90;99.90;;;;;;5088220;27;20066;-68
2023/10/01 02:19:21;;;;;;;2.13;1.88;;;11.80;99.90;;;;;;5090292;28;20040;-71
2023/10/01 02:21:49;;;;;;;3.72;3.33;;;11.70;99.90;;;;;;5089849;27;20040;-70
2023/10/01 02:24:23;;;;;;;4.40;3.35;;;11.60;99.90;;;;;;5090552;28;20043;-71
2023/10/01 02:26:53;;;;;;;3.45;2.58;;;11.70;99.90;;;;;;5096031;27;20066;-71
2023/10/01 02:29:24;;;;;;;2.30;2.00;;;11.70;99.90;;;;;;5095154;27;20028;-71
2023/10/01 02:31:56;;;;;;;2.00;1.67;;;11.70;99.90;;;;;;5094648;27;20093;-70
2023/10/01 02:34:26;;;;;;;;;;;11.50;99.90;;;;;;5094389;28;20028;-70
2023/10/01 02:36:51;;;;;;;5.28;3.22;;;11.50;99.90;;;;;;5092066;27;19914;-71
2023/10/01 02:39:29;;;;;;;3.55;2.67;;;11.40;99.90;;;;;;5090785;28;20032;-71
2023/10/01 02:42:44;;;;;;;3.08;2.65;;;11.20;99.90;;;;;;5091096;27;20044;-70
2023/10/01 02:44:47;;;;;;;3.13;2.00;;;11.20;99.90;;;;;;5083657;27;20047;-71
2023/10/01 02:47:16;;;;;;;5.70;2.65;;;11.10;99.90;;;;;;5089465;27;20192;-70
2023/10/01 02:49:49;;;;;;;3.55;3.17;;;11.10;99.90;;;;;;5092933;28;20360;-70
2023/10/01 02:52:25;;;;;;;3.10;2.72;;;11.20;99.90;;;;;;5085026;27;20094;-70
2023/10/01 02:54:54;;;;;;;6.53;2.47;;;11.20;99.90;;;;;;5092080;27;20206;-70
2023/10/01 02:57:24;;;;;;;4.60;2.67;;;11.20;99.90;;;;;;5085584;27;20024;-70
2023/10/01 03:02:41;;;;;;;4.07;2.20;;;11.30;99.90;;;;;;5095217;28;20197;-70
2023/10/01 03:05:18;;;;;;;2.80;2.50;;;11.30;99.90;;;;;;5091987;28;20519;-70
2023/10/01 03:07:50;;;;;;;5.95;2.30;;;11.30;99.90;;;;;;5070557;28;20039;-70
2023/10/01 03:10:26;;;;;;;6.13;3.00;;;11.30;99.90;;;;;;5089823;28;20104;-70
2023/10/01 03:12:58;;;;;;;3.72;2.70;;;11.30;99.90;;;;;;5085070;28;20039;-70
2023/10/01 03:15:35;;;;;;;2.28;1.67;;;11.20;99.90;;;;;;5093772;28;20256;-70
2023/10/01 03:18:34;;;;;;;3.67;2.00;;;11.20;99.90;;;;;;5090285;28;20103;-70
2023/10/01 03:29:14;;;;;;;2.80;2.00;;;10.90;99.90;;;;;;5087840;28;20056;-71
2023/10/01 03:31:21;;;;;;;6.82;2.15;;;10.90;99.90;;;;;;5089591;28;20044;-70
2023/10/01 03:33:53;;;;;;;4.30;1.95;;;10.80;99.90;;;;;;5071424;28;20702;-70
2023/10/01 03:36:25;;;;;;;4.75;2.38;;;10.80;99.90;;;;;;5094247;28;20056;-70
2023/10/01 03:38:57;;;;;;;1.65;1.50;;;10.90;99.90;;;;;;5086087;28;20032;-71
2023/10/01 03:41:24;;;;;;;2.70;2.28;;;11.00;99.90;;;;;;5088984;28;20633;-71
2023/10/01 03:43:54;;;;;;;4.80;2.30;;;11.00;99.90;;;;;;5083426;28;20059;-70
2023/10/01 03:46:26;;;;;;;3.60;2.45;;;11.00;99.90;;;;;;5087487;28;20032;-71
2023/10/01 03:51:53;;;;;;;4.40;2.15;;;11.00;99.90;;;;;;5088832;28;20054;-71
2023/10/01 03:57:11;;;;;;;1.30;1.20;;;10.90;99.90;;;;;;5091972;28;20803;-70
2023/10/01 03:59:37;;;;;;;2.20;1.60;;;10.70;99.90;;;;;;5089112;28;20042;-69
2023/10/01 04:02:26;;;;;;;3.83;2.13;;;10.60;99.90;;;;;;5084755;28;20109;-70
2023/10/01 04:04:58;;;;;;;2.72;2.13;;;10.50;99.90;;;;;;5087967;28;20124;-70
2023/10/01 04:07:42;;;;;;;2.33;2.08;;;10.50;99.90;;;;;;5088877;28;20044;-70
2023/10/01 04:10:15;;;;;;;3.33;2.83;;;10.50;99.90;;;;;;5085367;28;20039;-70
2023/10/01 04:12:54;;;;;;;4.07;2.67;;;10.50;99.90;;;;;;5082097;28;20044;-70
2023/10/01 04:15:31;;;;;;;4.35;2.45;;;10.40;99.90;;;;;;5091538;28;20035;-70
2023/10/01 04:21:28;;;;;;;;;;;10.30;99.90;;;;;;5086301;28;20040;-70
2023/10/01 04:23:36;;;;;;;4.13;2.15;;;10.30;99.90;;;;;;5075929;28;19931;-70
2023/10/01 04:26:05;;;;;;;3.40;2.55;;;10.30;99.90;;;;;;5090705;28;20555;-67
2023/10/01 04:28:44;;;;;;;4.25;2.55;;;10.30;99.90;;;;;;5087086;28;20265;-67
2023/10/01 04:31:15;;;;;;;2.25;1.90;;;10.10;99.90;;;;;;5087236;28;20094;-67
2023/10/01 04:33:43;;;;;;;2.25;2.03;;;10.00;99.90;;;;;;5092083;28;21437;-67
2023/10/01 04:36:16;;;;;;;2.63;2.30;;;10.00;99.90;;;;;;5087473;28;20047;-67
2023/10/01 04:38:43;;;;;;;4.32;3.45;;;9.90;99.90;;;;;;5091610;28;20117;-67
2023/10/01 04:41:25;;;;;;;4.30;3.38;;;9.90;99.90;;;;;;5092223;28;20032;-67
2023/10/01 04:43:55;;;;;;;4.33;2.60;;;9.80;99.90;;;;;;5093902;28;20703;-70
2023/10/01 04:46:24;;;;;;;2.95;2.25;;;9.80;99.90;;;;;;5076171;28;20287;-70
2023/10/01 04:48:51;;;;;;;3.90;2.28;;;9.80;99.90;;;;;;5086861;28;20133;-70
2023/10/01 04:51:21;;;;;;;3.17;2.83;;;9.70;99.90;;;;;;5091458;28;20043;-70
2023/10/01 04:53:47;;;;;;;4.60;2.60;;;9.70;99.90;;;;;;5096726;28;20039;-70
2023/10/01 04:56:20;;;;;;;5.05;3.55;;;9.70;99.90;;;;;;5089758;28;20557;-70
2023/10/01 04:58:51;;;;;;;3.83;2.60;;;9.70;99.90;;;;;;5091018;28;20737;-71
2023/10/01 05:01:18;;;;;;;3.78;2.70;;;9.60;99.90;;;;;;5089507;28;20123;-71
2023/10/01 05:03:48;;;;;;;5.45;2.83;;;9.70;99.90;;;;;;5092765;28;20469;-71
2023/10/01 05:06:19;;;;;;;3.28;2.83;;;9.70;99.90;;;;;;5078849;28;20062;-70
2023/10/01 05:08:49;;;;;;;5.88;2.40;;;9.70;99.90;;;;;;5094820;28;20514;-70
2023/10/01 05:11:21;;;;;;;5.20;2.60;;;9.80;99.90;;;;;;5086140;28;20044;-70
2023/10/01 05:13:51;;;;;;;2.90;2.08;;;9.90;99.90;;;;;;5084510;28;20030;-70
2023/10/01 05:16:27;;;;;;;3.78;2.60;;;9.90;99.90;;;;;;5090935;28;20048;-70
2023/10/01 05:19:13;;;;;;;2.05;1.77;;;9.90;99.90;;;;;;5083755;28;20040;-70
2023/10/01 05:21:48;;;;;;;8.95;3.00;;;10.00;99.90;;;;;;5088472;28;20134;-70
2023/10/01 05:24:58;;;;;;;4.03;2.45;;;10.00;99.90;;;;;;5084457;28;20091;-71
2023/10/01 05:27:09;;;;;;;2.80;2.10;;;10.00;99.90;;;;;;5078853;28;20036;-71
2023/10/01 05:29:42;;;;;;;5.03;2.53;;;10.10;99.90;;;;;;5087154;28;20083;-71
2023/10/01 05:32:10;;;;;;;4.38;2.75;;;10.20;99.90;;;;;;5087447;28;20101;-71
2023/10/01 05:34:38;;;;;;;4.82;2.83;;;10.30;99.90;;;;;;5090595;28;20020;-69
2023/10/01 05:37:12;;;;;;;4.25;3.15;;;10.40;99.90;;;;;;5079570;27;20835;-70
2023/10/01 05:42:25;;;;;;;4.72;3.45;;;10.60;99.90;;;;;;5093350;27;20059;-67
2023/10/01 05:44:51;;;;;;;7.55;4.30;;;10.70;99.90;;;;;;5090452;28;20031;-67
2023/10/01 05:47:17;;;;;;;6.13;5.25;;;10.60;99.90;;;;;;5083199;28;20376;-67
2023/10/01 05:49:49;;;;;;;5.53;4.93;;;10.60;99.90;;;;;;5092001;28;20028;-66
2023/10/01 05:52:18;;;;;;;;;;;10.70;99.90;;;;;;5072498;28;20051;-66
2023/10/01 05:54:52;;;;;;;5.53;4.15;;;10.80;99.90;;;;;;5085684;28;19911;-67
2023/10/01 05:57:21;;;;;;;10.60;5.85;;;10.90;99.90;;;;;;5073851;28;20042;-66
2023/10/01 05:59:56;;;;;;;9.15;5.50;;;11.00;99.90;;;;;;5088987;28;20038;-66
2023/10/01 06:07:56;;;;;;;4.97;2.20;;;11.30;99.90;;;;;;5086722;28;20042;-67
2023/10/01 06:10:35;;;;;;;7.05;2.38;;;11.40;99.90;;;;;;5073245;28;20039;-66
2023/10/01 06:13:06;;;;;;;5.13;3.65;;;11.50;99.90;;;;;;5087889;28;20032;-67
2023/10/01 06:15:33;;;;;;;6.03;4.18;;;11.50;99.90;;;;;;5087109;28;20584;-67
2023/10/01 06:18:04;;;;;;;4.60;3.58;;;11.60;99.90;;;;;;5087379;28;20020;-66
2023/10/01 06:20:33;;;;;;;6.22;4.72;;;11.60;99.90;;;;;;5089608;28;20036;-66
2023/10/01 06:22:59;;;;;;;4.05;3.42;;;11.70;99.90;;;;;;5086916;28;20058;-66
2023/10/01 06:25:40;;;;;;;4.45;3.00;;;11.70;99.90;;;;;;5088334;28;20071;-66
2023/10/01 06:28:09;;;;;;;4.47;2.60;;;11.80;99.90;;;;;;5073655;28;20048;-66
2023/10/01 06:30:40;;;;;;;6.28;2.55;;;11.90;99.90;;;;;;5087785;28;20046;-67
2023/10/01 06:33:24;;;;;;;3.85;2.22;;;12.00;99.90;;;;;;5076196;28;20327;-67
2023/10/01 06:38:39;;;;;;;7.07;3.88;;;12.20;99.90;;;;;;5083563;27;20139;-66
2023/10/01 06:41:06;;;;;;;4.03;2.95;;;12.40;99.90;;;;;;5092767;27;20032;-66
2023/10/01 06:43:32;;;;;;;7.40;3.75;;;12.40;99.90;;;;;;5088191;27;20044;-67
2023/10/01 06:46:03;;;;;;;5.93;4.20;;;12.50;99.90;;;;;;5083868;28;20038;-66
2023/10/01 06:48:28;;;;;;;6.05;3.45;;;12.50;99.90;;;;;;5082879;28;20569;-67
2023/10/01 06:50:54;;;;;;;4.93;3.03;;;12.60;99.90;;;;;;5089902;28;20043;-66
2023/10/01 06:53:43;;;;;;;5.68;2.70;;;12.70;99.90;;;;;;5085866;28;20045;-67
2023/10/01 06:56:09;;;;;;;6.03;2.42;;;12.90;99.90;;;;;;5082228;28;20204;-67
2023/10/01 06:58:34;;;;;;;6.47;2.20;;;13.00;99.90;;;;;;5088246;28;20392;-67
2023/10/01 07:01:02;;;;;;;9.88;2.85;;;13.10;99.90;;;;;;5083016;28;20043;-67
2023/10/01 07:03:30;;;;;;;3.00;2.05;;;13.30;99.90;;;;;;5087061;28;20036;-67
2023/10/01 07:06:01;;;;;;;4.80;3.35;;;13.50;99.90;;;;;;5085412;28;20060;-67
2023/10/01 07:08:43;;;;;;;5.28;2.50;;;13.70;99.90;;;;;;5086143;28;20584;-67
2023/10/01 07:11:11;;;;;;;7.03;4.25;;;13.90;99.90;;;;;;5083653;28;20035;-69
2023/10/01 07:13:40;;;;;;;3.17;1.75;;;14.20;99.90;;;;;;5078436;28;20072;-69
2023/10/01 07:16:09;;;;;;;2.35;1.48;;;14.30;99.90;;;;;;5087685;28;20032;-70
2023/10/01 07:18:37;;;;;;;3.47;1.73;;;14.50;99.90;;;;;;5085200;28;20039;-69
2023/10/01 07:21:09;;;;;;;5.05;2.00;;;14.60;99.90;;;;;;5087778;28;20463;-70
2023/10/01 07:23:35;;;;;;;3.38;1.60;;;14.70;99.90;;;;;;5083264;28;20535;-70
2023/10/01 07:26:01;;;;;;;2.63;1.80;;;14.80;99.90;;;;;;5089104;28;21549;-71
2023/10/01 07:28:26;;;;;;;3.40;2.00;;;14.90;99.90;;;;;;5088458;28;20076;-70
2023/10/01 07:30:56;;;;;;;3.13;1.83;;;15.00;99.90;;;;;;5085182;28;20135;-70
2023/10/01 07:33:22;;;;;;;2.65;1.50;;;15.00;99.90;;;;;;5084629;28;20055;-70
2023/10/01 07:36:01;;;;;;;2.92;1.80;;;15.00;99.90;;;;;;5075583;28;20039;-71
2023/10/01 07:38:31;;;;;;;4.75;1.70;;;15.10;99.90;;;;;;5089965;28;20035;-71
2023/10/01 07:41:07;;;;;;;3.13;2.00;;;15.10;99.90;;;;;;5086333;28;20077;-70
2023/10/01 07:43:33;;;;;;;4.57;1.80;;;15.20;99.90;;;;;;5081692;28;20055;-71
2023/10/01 07:46:07;;;;;;;4.03;1.75;;;15.40;99.90;;;;;;5083153;28;20060;-71
2023/10/01 07:48:33;;;;;;;8.00;2.13;;;15.60;99.90;;;;;;5084592;28;20172;-72
2023/10/01 07:51:02;;;;;;;2.50;1.38;;;15.80;99.90;;;;;;5083826;27;20048;-67
2023/10/01 07:53:32;;;;;;;6.30;2.08;;;16.00;99.90;;;;;;5084927;28;20032;-67
2023/10/01 07:56:02;;;;;;;2.70;2.25;;;16.10;99.90;;;;;;5084166;28;20560;-65
2023/10/01 07:58:47;;;;;;;2.55;1.80;;;16.20;99.90;;;;;;5086524;28;20042;-68
2023/10/01 08:04:05;;;;;;;2.53;1.55;;;16.30;99.90;;;;;;5081092;28;20062;-66
2023/10/01 08:06:41;;;;;;;2.40;1.50;;;16.40;99.90;;;;;;5079952;28;20116;-65
2023/10/01 08:09:08;;;;;;;2.50;1.70;;;16.60;99.90;;;;;;5083058;28;20437;-65
2023/10/01 08:14:20;;;;;;;6.40;1.88;;;16.90;99.90;;;;;;5079237;28;20573;-66
2023/10/01 08:16:50;;;;;;;5.38;2.53;;;17.10;99.90;;;;;;5084563;28;20062;-67
2023/10/01 08:19:23;;;;;;;5.85;2.83;;;17.20;99.90;;;;;;5084349;28;20027;-72
2023/10/01 08:21:53;;;;;;;4.28;1.80;;;17.20;99.90;;;;;;5088404;28;20045;-65
2023/10/01 08:24:33;;;;;;;3.97;2.33;;;17.20;99.90;;;;;;5086370;28;20441;-66
2023/10/01 08:27:04;;;;;;;2.58;1.85;;;17.20;99.90;;;;;;5084767;28;20035;-66
2023/10/01 08:29:59;;;;;;;7.22;2.35;;;17.30;99.90;;;;;;5083251;28;20050;-70
2023/10/01 08:32:22;;;;;;;4.63;2.20;;;17.30;99.90;;;;;;5080568;28;20079;-66
2023/10/01 08:35:06;;;;;;;4.18;2.20;;;17.30;99.90;;;;;;5075919;28;20048;-65
2023/10/01 08:37:32;;;;;;;4.50;2.50;;;17.30;99.90;;;;;;5082288;28;20036;-66
2023/10/01 08:39:58;;;;;;;3.33;2.03;;;17.30;99.90;;;;;;5084794;28;20097;-66
2023/10/01 08:42:28;;;;;;;4.10;2.55;;;17.40;99.90;;;;;;5070562;28;20051;-67
2023/10/01 08:45:02;;;;;;;13.45;2.97;;;17.40;99.90;;;;;;5085816;28;20034;-68
2023/10/01 08:47:34;;;;;;;11.40;3.15;;;17.50;99.90;;;;;;5082143;28;20228;-66
2023/10/01 08:50:26;;;;;;;6.25;2.60;;;17.50;99.90;;;;;;5063873;28;20076;-67
2023/10/01 08:52:55;;;;;;;;;;;17.60;99.90;;;;;;5070419;28;20048;-66
2023/10/01 08:55:35;;;;;;;3.13;2.20;;;17.70;99.90;;;;;;5079415;28;19964;-67
2023/10/01 08:58:48;;;;;;;12.80;3.13;;;17.80;99.90;;;;;;5083741;28;20033;-67
2023/10/01 09:01:10;;;;;;;8.20;3.30;;;18.00;99.90;;;;;;5080081;28;20035;-66
2023/10/01 09:03:36;;;;;;;4.82;2.47;;;18.20;99.90;;;;;;5083077;28;20052;-67
2023/10/01 09:06:03;;;;;;;3.22;1.63;;;18.30;99.90;;;;;;5076763;28;20125;-67
2023/10/01 09:08:33;;;;;;;5.78;3.38;;;18.40;99.90;;;;;;5087576;28;20120;-67
2023/10/01 09:11:01;;;;;;;4.63;1.65;;;18.50;99.90;;;;;;5084021;28;20589;-68
2023/10/01 09:13:30;;;;;;;4.60;1.40;;;18.70;99.90;;;;;;5086291;28;20036;-67
2023/10/01 09:16:09;;;;;;;6.63;2.05;;;18.80;99.90;;;;;;5068404;28;20040;-67
2023/10/01 09:18:37;;;;;;;3.28;1.58;;;18.90;99.90;;;;;;5086930;28;20035;-67
2023/10/01 09:21:06;;;;;;;2.90;1.73;;;19.10;99.90;;;;;;5084127;28;20045;-70
2023/10/01 09:26:41;;;;;;;6.28;3.20;;;19.30;99.90;;;;;;5088214;28;20061;-70
2023/10/01 09:29:21;;;;;;;4.45;2.22;;;19.40;99.90;;;;;;5087028;28;20043;-69
2023/10/01 09:31:56;;;;;;;5.85;1.77;;;19.50;99.90;;;;;;5087574;28;20104;-70
2023/10/01 09:34:36;;;;;;;4.50;1.70;;;19.60;99.90;;;;;;5068029;28;20051;-69
2023/10/01 09:37:33;;;;;;;5.85;1.90;;;19.60;99.90;;;;;;5080326;28;20035;-69
2023/10/01 09:42:56;;;;;;;3.88;1.60;;;19.50;99.90;;;;;;5088973;28;20828;-70
2023/10/01 09:45:26;;;;;;;2.78;1.45;;;19.60;99.90;;;;;;5093905;28;20148;-70
2023/10/01 09:48:07;;;;;;;3.53;1.75;;;19.70;99.90;;;;;;5076466;28;20036;-70
2023/10/01 09:50:42;;;;;;;6.05;1.70;;;19.60;99.90;;;;;;5089642;28;20666;-71
2023/10/01 09:53:14;;;;;;;2.13;1.58;;;19.70;99.90;;;;;;5080966;28;20413;-71
2023/10/01 09:55:48;;;;;;;3.47;1.40;;;19.50;99.90;;;;;;5083810;28;20127;-71
2023/10/01 09:58:24;;;;;;;2.42;1.33;;;19.30;99.90;;;;;;5085426;28;20044;-71
2023/10/01 10:00:55;;;;;;;10.48;2.22;;;19.20;99.90;;;;;;5082566;28;20074;-70
2023/10/01 10:03:21;;;;;;;8.82;2.08;;;19.20;99.90;;;;;;5084014;28;20206;-71
2023/10/01 10:05:48;;;;;;;2.25;1.40;;;19.30;99.90;;;;;;5075770;28;20446;-71
2023/10/01 10:08:20;;;;;;;2.92;1.60;;;19.40;99.90;;;;;;5087897;28;20062;-69
2023/10/01 10:10:52;;;;;;;;;;;19.40;99.90;;;;;;5083709;28;20178;-70
2023/10/01 10:13:36;;;;;;;4.82;1.27;;;19.30;99.90;;;;;;5088119;28;19980;-71
2023/10/01 10:19:20;;;;;;;4.13;1.88;;;19.30;99.90;;;;;;5087914;28;20054;-70
2023/10/01 10:24:30;;;;;;;4.53;1.42;;;19.10;99.90;;;;;;5086127;28;20051;-70
2023/10/01 10:27:09;;;;;;;10.48;2.28;;;19.10;99.90;;;;;;5089671;28;20039;-70
2023/10/01 10:29:56;;;;;;;3.35;1.40;;;19.20;99.90;;;;;;5082638;28;20047;-71
2023/10/01 10:32:44;;;;;;;2.72;1.30;;;19.20;99.80;;;;;;5086061;28;20122;-70
2023/10/01 10:35:16;;;;;;;3.92;1.95;;;19.30;99.60;;;;;;5083830;28;20023;-67
2023/10/01 10:37:45;;;;;;;4.00;1.53;;;19.30;99.60;;;;;;5083319;28;20115;-67
2023/10/01 10:42:58;;;;;;;2.95;1.40;;;19.50;97.80;;;;;;5074882;28;21359;-67
2023/10/01 10:45:27;;;;;;;3.75;1.33;;;19.60;96.80;;;;;;5082653;28;20051;-67
2023/10/01 10:48:02;;;;;;;3.40;1.50;;;19.80;96.90;;;;;;5086053;28;20712;-67
2023/10/01 10:50:50;;;;;;;4.78;1.50;;;20.10;96.90;;;;;;5086970;28;20040;-67
2023/10/01 10:53:21;;;;;;;3.85;1.55;;;20.30;93.00;;;;;;5081126;28;20112;-70
2023/10/01 10:55:53;;;;;;;3.90;1.60;;;20.30;91.70;;;;;;5085111;28;20032;-70
2023/10/01 10:58:20;;;;;;;5.32;1.92;;;20.30;92.40;;;;;;5083267;28;20040;-70
2023/10/01 11:00:49;;;;;;;3.30;1.20;;;20.40;92.30;;;;;;5087245;28;20146;-71
2023/10/01 11:03:16;;;;;;;3.35;1.20;;;20.40;93.40;;;;;;5083284;28;20766;-69
2023/10/01 11:05:52;;;;;;;3.05;1.27;;;20.40;93.30;;;;;;5069923;28;20047;-70
2023/10/01 11:08:28;;;;;;;2.38;1.33;;;20.50;92.20;;;;;;5066780;28;20054;-70
2023/10/01 11:10:55;;;;;;;2.60;1.05;;;20.40;93.30;;;;;;5072174;28;20056;-70
2023/10/01 11:13:37;;;;;;;3.45;1.40;;;20.30;94.00;;;;;;5071848;28;20042;-70
2023/10/01 11:16:14;;;;;;;;;;;20.20;95.70;;;;;;5076743;28;20031;-70
2023/10/01 11:18:48;;;;;;;6.57;1.92;;;20.20;94.90;;;;;;5082655;28;19959;-69
2023/10/01 11:21:20;;;;;;;5.25;1.40;;;20.20;96.00;;;;;;5087350;28;20688;-69
2023/10/01 11:23:53;;;;;;;5.90;1.30;;;20.10;96.00;;;;;;5088518;28;20052;-69
2023/10/01 11:26:26;;;;;;;3.40;1.20;;;20.10;95.70;;;;;;5087663;28;20062;-69
2023/10/01 11:29:00;;;;;;;4.13;1.58;;;20.10;95.70;;;;;;5088093;28;20044;-69
2023/10/01 11:31:31;;;;;;;5.18;1.35;;;20.20;96.10;;;;;;5088773;28;20105;-69
2023/10/01 11:34:05;;;;;;;4.07;1.70;;;20.40;96.10;;;;;;5064260;28;20115;-68
2023/10/01 11:36:38;;;;;;;2.80;1.40;;;20.50;96.30;;;;;;5087425;28;20591;-69
2023/10/01 11:39:04;;;;;;;4.80;2.15;;;20.60;95.30;;;;;;5074868;28;20051;-69
2023/10/01 11:41:41;;;;;;;2.85;1.48;;;20.80;96.60;;;;;;5079508;28;20063;-69
2023/10/01 11:44:09;;;;;;;2.05;1.38;;;20.90;94.30;;;;;;5078860;28;20053;-69
2023/10/01 11:49:34;;;;;;;3.25;1.17;;;21.20;94.20;;;;;;5088866;28;20101;-66
2023/10/01 11:52:27;;;;;;;5.65;1.58;;;21.30;94.60;;;;;;5077257;28;20098;-67
2023/10/01 11:54:53;;;;;;;4.93;1.30;;;21.40;92.70;;;;;;5067853;28;22301;-67
2023/10/01 11:57:25;;;;;;;3.25;1.30;;;21.40;93.50;;;;;;5078501;28;20059;-66
2023/10/01 11:59:55;;;;;;;5.00;1.60;;;21.50;92.10;;;;;;5082405;28;20047;-67
2023/10/01 12:02:31;;;;;;;4.40;1.75;;;21.50;93.90;;;;;;5080339;28;20036;-67
2023/10/01 12:04:59;;;;;;;4.13;1.83;;;21.70;93.10;;;;;;5075673;28;20559;-67
2023/10/01 12:07:39;;;;;;;4.32;1.70;;;21.80;92.90;;;;;;5089051;28;20150;-68
2023/10/01 12:10:07;;;;;;;3.85;1.40;;;22.00;91.60;;;;;;5086196;28;20044;-67
2023/10/01 12:12:37;;;;;;;4.00;1.23;;;22.10;90.40;;;;;;5083836;28;20118;-68
2023/10/01 12:17:51;;;;;;;3.25;1.30;;;22.20;90.20;;;;;;5087983;28;20100;-66
2023/10/01 12:20:23;;;;;;;2.95;1.40;;;22.30;88.80;;;;;;5089258;28;20028;-67
2023/10/01 12:23:04;;;;;;;2.28;1.05;;;22.40;89.00;;;;;;5083497;28;20407;-67
2023/10/01 12:25:49;;;;;;;4.43;1.13;;;22.60;88.50;;;;;;5068706;28;20050;-71
2023/10/01 12:28:18;;;;;;;2.95;1.02;;;22.70;87.00;;;;;;5087998;28;20032;-73
2023/10/01 12:30:46;;;;;;;5.82;1.50;;;22.80;85.20;;;;;;5083498;28;20036;-73
2023/10/01 12:33:14;;;;;;;2.55;1.35;;;22.80;84.10;;;;;;5088346;28;20127;-73
2023/10/01 12:35:40;;;;;;;4.13;1.40;;;22.70;82.90;;;;;;5078535;28;20040;-75
2023/10/01 12:38:22;;;;;;;3.33;1.10;;;22.40;85.70;;;;;;5089358;28;20113;-75
2023/10/01 12:40:52;;;;;;;2.65;1.02;;;22.30;85.20;;;;;;5084571;28;20640;-75
2023/10/01 12:43:37;;;;;;;2.97;1.30;;;22.20;85.80;;;;;;5086849;28;20074;-74
2023/10/01 12:46:12;;;;;;;3.22;1.25;;;22.20;84.90;;;;;;5083401;28;20047;-74
2023/10/01 12:48:41;;;;;;;4.03;1.40;;;22.10;84.60;;;;;;5086847;28;20044;-74
2023/10/01 12:51:12;;;;;;;1.88;0.98;;;21.90;88.20;;;;;;5081155;28;20378;-75
2023/10/01 12:53:50;;;;;;;2.80;1.23;;;21.80;87.80;;;;;;5069971;28;20040;-75
2023/10/01 12:56:43;;;;;;;3.45;1.70;;;21.70;88.80;;;;;;5092344;28;20408;-76
2023/10/01 12:59:09;;;;;;;3.75;1.23;;;21.60;87.20;;;;;;5093451;28;20043;-75
2023/10/01 13:01:35;;;;;;;2.58;1.00;;;21.40;86.70;;;;;;5083667;28;20404;-75
2023/10/01 13:04:22;;;;;;;3.63;1.23;;;21.40;88.50;;;;;;5092899;28;20048;-75
2023/10/01 13:06:52;;;;;;;3.65;1.55;;;21.40;88.70;;;;;;5082708;27;20043;-74
2023/10/01 13:12:14;;;;;;;3.45;1.17;;;21.50;87.20;;;;;;5090077;28;20032;-76
2023/10/01 13:15:14;;;;;;;2.13;1.20;;;21.60;90.90;;;;;;5093168;28;20504;-77
2023/10/01 13:17:40;;;;;;;2.67;1.08;;;21.50;90.60;;;;;;5092456;28;20833;-75
2023/10/01 13:20:22;;;;;;;3.72;1.27;;;21.50;90.40;;;;;;5071844;28;20732;-74
2023/10/01 13:22:52;;;;;;;3.05;1.27;;;21.60;91.20;;;;;;5087079;28;20040;-74
2023/10/01 13:25:20;;;;;;;2.78;1.23;;;21.50;90.40;;;;;;5092254;28;20055;-75
2023/10/01 13:28:01;;;;;;;7.50;1.60;;;21.50;88.80;;;;;;5092348;28;20038;-74
2023/10/01 13:30:28;;;;;;;4.10;1.40;;;21.50;90.00;;;;;;5085542;28;20040;-74
2023/10/01 13:35:58;;;;;;;3.13;1.35;;;21.60;91.30;;;;;;5086732;28;20089;-73
2023/10/01 14:11:02;;;;;;;3.03;1.30;;;22.30;91.50;;;;;;5087517;28;20097;-69
2023/10/01 14:13:35;;;;;;;4.55;1.50;;;22.60;90.60;;;;;;5082813;28;20052;-69
2023/10/01 14:16:11;;;;;;;2.85;1.20;;;22.70;91.20;;;;;;5089083;28;20031;-70
2023/10/01 14:18:41;;;;;;;3.55;1.30;;;22.80;90.00;;;;;;5089234;28;20031;-70
2023/10/01 14:21:13;;;;;;;3.22;1.10;;;22.90;88.90;;;;;;5092221;28;20040;-69
2023/10/01 14:23:40;;;;;;;3.63;1.55;;;23.00;89.10;;;;;;5094629;28;20492;-69
2023/10/01 14:26:14;;;;;;;3.13;1.33;;;22.90;90.20;;;;;;5089965;28;20028;-69
2023/10/01 14:28:46;;;;;;;3.08;1.55;;;22.90;87.80;;;;;;5091164;28;20039;-69
2023/10/01 14:31:14;;;;;;;10.40;1.75;;;22.90;88.90;;;;;;5091307;28;20067;-70
2023/10/01 14:33:40;;;;;;;3.63;1.50;;;23.00;86.30;;;;;;5089120;28;20031;-69
2023/10/01 14:36:10;;;;;;;4.30;1.33;;;23.00;84.50;;;;;;5092262;28;20039;-70
2023/10/01 14:38:41;;;;;;;3.33;1.20;;;24.20;84.80;;;;;;5093996;28;20126;-68
2023/10/01 14:41:17;;;;;;;1.58;1.10;;;25.70;80.30;;;;;;5091231;28;20035;-67
2023/10/01 14:43:54;;;;;;;7.35;1.38;;;26.50;76.90;;;;;;5090342;28;20043;-68
2023/10/01 14:46:21;;;;;;;3.00;1.38;;;26.00;72.20;;;;;;5093549;28;20031;-68
2023/10/01 14:48:47;;;;;;;3.85;1.25;;;25.90;76.60;;;;;;5070338;28;20066;-69
2023/10/01 14:51:20;;;;;;;4.07;1.08;;;26.90;73.10;;;;;;5091733;28;20055;-69